Terminal Aerodrome Forecast
Issued by NWS Grand Forks, ND

Home | Current Version | Previous Version | Graphics & Text | Print | Product List | Glossary On
Versions: 1 2 3 4 5 6 7 8 9 10 11 12 13 14
000
FTUS43 KFGF 152300
TAFFAR
TAF
KFAR 152322Z 1600/1624 35023G32KT P6SM OVC012
     FM160400 34014G22KT P6SM OVC012
     FM161200 34014KT P6SM OVC015=

USA.gov is the U.S. government's official web portal to all federal, state and local government web resources and services.